createdAt,value
2023-01-15T00:02:09.042Z,67.03
2023-01-15T00:04:35.932Z,66.98
2023-01-15T00:07:03.923Z,67.05
2023-01-15T00:09:30.754Z,66.95
2023-01-15T00:11:57.459Z,66.98
2023-01-15T00:14:24.187Z,66.80
2023-01-15T00:16:51.999Z,66.73
2023-01-15T00:19:18.949Z,66.67
2023-01-15T00:21:45.951Z,66.75
2023-01-15T00:24:31.518Z,66.82
2023-01-15T00:27:16.938Z,66.90
2023-01-15T00:29:46.722Z,66.81
2023-01-15T00:32:14.173Z,67.07
2023-01-15T00:34:42.131Z,67.09
2023-01-15T00:37:08.866Z,67.30
2023-01-15T00:39:36.734Z,67.45
2023-01-15T00:42:04.026Z,67.43
2023-01-15T00:44:33.332Z,67.44
2023-01-15T00:47:00.220Z,67.63
2023-01-15T00:49:26.948Z,67.59
2023-01-15T00:51:55.240Z,67.50
2023-01-15T00:54:22.048Z,67.63
2023-01-15T00:56:48.796Z,67.70
2023-01-15T00:59:15.580Z,67.60
2023-01-15T01:01:43.106Z,67.50
2023-01-15T01:04:10.587Z,67.43
2023-01-15T01:06:37.595Z,67.66
2023-01-15T01:09:04.649Z,67.68
2023-01-15T01:11:33.777Z,67.43
2023-01-15T01:14:00.869Z,67.47
2023-01-15T01:16:37.064Z,67.62
2023-01-15T01:19:09.599Z,67.51
2023-01-15T01:21:37.419Z,67.54
2023-01-15T01:24:05.241Z,67.52
2023-01-15T01:26:33.710Z,67.54
2023-01-15T01:29:00.671Z,67.45
2023-01-15T01:31:27.513Z,67.47
2023-01-15T01:33:55.814Z,67.54
2023-01-15T01:36:30.544Z,67.38
2023-01-15T01:38:58.680Z,67.60
2023-01-15T01:41:25.596Z,67.52
2023-01-15T01:44:02.166Z,67.49
2023-01-15T01:46:31.043Z,67.60
2023-01-15T01:49:08.962Z,67.52
2023-01-15T01:51:42.941Z,67.34
2023-01-15T01:54:10.205Z,67.36
2023-01-15T01:56:37.165Z,67.49
2023-01-15T01:59:04.159Z,67.31
2023-01-15T02:01:31.450Z,67.29
2023-01-15T02:03:58.482Z,67.15
2023-01-15T02:06:25.638Z,67.23
2023-01-15T02:08:52.524Z,67.22
2023-01-15T02:11:21.795Z,67.07
2023-01-15T02:13:51.866Z,66.94
2023-01-15T02:16:24.752Z,67.01
2023-01-15T02:19:46.193Z,67.11
2023-01-15T02:22:20.948Z,66.95
2023-01-15T02:25:07.763Z,66.99
2023-01-15T02:39:17.415Z,67.05
2023-01-15T02:41:47.243Z,66.14
2023-01-15T02:44:16.256Z,66.12
2023-01-15T02:46:43.031Z,66.13
2023-01-15T02:49:13.567Z,66.11
2023-01-15T02:51:45.562Z,66.03
2023-01-15T02:54:13.915Z,66.03
2023-01-15T02:56:41.718Z,66.05
2023-01-15T02:59:11.865Z,66.03
2023-01-15T03:01:52.445Z,65.95
2023-01-15T03:04:26.827Z,66.05
2023-01-15T03:07:08.368Z,65.82
2023-01-15T03:09:36.699Z,65.83
2023-01-15T03:12:09.500Z,65.93
2023-01-15T03:14:51.724Z,65.99
2023-01-15T03:17:47.709Z,66.10
2023-01-15T03:20:23.863Z,66.02
2023-01-15T03:22:53.330Z,65.97
2023-01-15T03:25:29.350Z,66.12
2023-01-15T03:27:59.458Z,65.89
2023-01-15T03:30:26.949Z,66.02
2023-01-15T03:32:55.003Z,65.94
2023-01-15T03:35:57.087Z,66.02
2023-01-15T03:38:30.609Z,66.06
2023-01-15T03:41:17.691Z,66.17
2023-01-15T03:44:22.680Z,66.26
2023-01-15T03:47:02.068Z,66.27
2023-01-15T03:50:00.751Z,66.24
2023-01-15T03:52:50.558Z,66.51
2023-01-15T03:55:29.979Z,66.73
2023-01-15T03:58:15.062Z,66.72
2023-01-15T04:12:00.658Z,67.13
2023-01-15T04:14:31.514Z,66.75
2023-01-15T04:16:59.814Z,66.85
2023-01-15T04:19:26.834Z,66.78
2023-01-15T04:22:00.132Z,66.90
2023-01-15T04:24:27.278Z,66.96
2023-01-15T04:26:54.330Z,67.02
2023-01-15T04:29:21.583Z,67.07
2023-01-15T04:31:48.751Z,67.12
2023-01-15T04:34:15.865Z,67.18
2023-01-15T04:36:46.753Z,67.26
2023-01-15T04:39:13.842Z,67.10
2023-01-15T04:41:59.435Z,67.25
2023-01-15T04:44:28.864Z,67.11
2023-01-15T04:46:57.592Z,67.06
2023-01-15T04:49:24.634Z,66.90
2023-01-15T04:51:51.709Z,67.07
2023-01-15T04:54:19.113Z,67.07
2023-01-15T04:56:47.480Z,67.10
2023-01-15T04:59:15.362Z,67.05
2023-01-15T05:01:51.368Z,67.14
2023-01-15T05:04:22.174Z,66.96
2023-01-15T05:06:49.347Z,66.99
2023-01-15T05:09:16.589Z,66.91
2023-01-15T05:11:43.646Z,67.05
2023-01-15T05:14:10.579Z,66.97
2023-01-15T05:16:38.702Z,66.79
2023-01-15T05:19:08.167Z,66.80
2023-01-15T05:21:36.837Z,66.85
2023-01-15T05:24:05.234Z,66.65
2023-01-15T05:26:33.556Z,66.74
2023-01-15T05:29:00.703Z,66.70
2023-01-15T05:31:28.056Z,66.69
2023-01-15T05:33:55.397Z,66.73
2023-01-15T05:36:24.406Z,66.76
2023-01-15T05:38:52.528Z,66.76
2023-01-15T05:41:38.750Z,66.72
2023-01-15T05:44:08.073Z,66.76
2023-01-15T05:46:35.665Z,66.61
2023-01-15T05:49:04.926Z,66.57
2023-01-15T05:51:31.901Z,66.53
2023-01-15T05:53:58.872Z,66.56
2023-01-15T05:56:26.164Z,66.41
2023-01-15T05:58:53.313Z,66.42
2023-01-15T06:01:20.852Z,66.56
2023-01-15T06:03:48.634Z,66.43
2023-01-15T06:06:17.849Z,66.43
2023-01-15T06:08:45.383Z,66.37
2023-01-15T06:11:12.567Z,66.39
2023-01-15T06:13:39.829Z,66.37
2023-01-15T06:16:07.635Z,66.43
2023-01-15T06:18:35.745Z,66.54
2023-01-15T06:21:04.219Z,66.48
2023-01-15T06:23:31.700Z,66.45
2023-01-15T06:26:02.359Z,66.50
2023-01-15T06:28:29.371Z,66.33
2023-01-15T06:30:56.389Z,66.33
2023-01-15T06:33:23.488Z,66.39
2023-01-15T06:35:50.488Z,66.45
2023-01-15T06:38:17.490Z,66.47
2023-01-15T06:40:44.495Z,66.31
2023-01-15T06:43:30.180Z,66.20
2023-01-15T06:46:26.271Z,66.31
2023-01-15T06:48:54.061Z,66.17
2023-01-15T06:51:21.929Z,66.10
2023-01-15T06:53:48.911Z,66.09
2023-01-15T06:56:15.921Z,66.04
2023-01-15T06:58:43.612Z,66.03
2023-01-15T07:01:15.268Z,66.17
2023-01-15T07:03:42.549Z,66.18
2023-01-15T07:06:10.924Z,66.23
2023-01-15T07:08:38.065Z,66.05
2023-01-15T07:11:09.328Z,66.00
2023-01-15T07:13:36.281Z,66.05
2023-01-15T07:16:03.517Z,65.98
2023-01-15T07:18:31.518Z,66.02
2023-01-15T07:20:58.514Z,65.89
2023-01-15T07:23:26.062Z,65.98
2023-01-15T07:25:53.604Z,65.91
2023-01-15T07:28:21.389Z,65.75
2023-01-15T07:30:48.320Z,65.67
2023-01-15T07:33:15.400Z,65.70
2023-01-15T07:35:42.544Z,65.61
2023-01-15T07:38:09.573Z,65.58
2023-01-15T07:40:37.132Z,65.56
2023-01-15T07:43:22.819Z,65.44
2023-01-15T07:46:08.483Z,65.38
2023-01-15T07:48:54.353Z,65.33
2023-01-15T07:51:21.386Z,65.28
2023-01-15T07:53:48.396Z,65.40
2023-01-15T07:56:15.452Z,65.15
2023-01-15T07:58:42.502Z,65.07
2023-01-15T08:01:09.592Z,65.00
2023-01-15T08:03:36.614Z,64.90
2023-01-15T08:06:03.760Z,64.82
2023-01-15T08:08:30.763Z,64.81
2023-01-15T08:11:20.309Z,64.71
2023-01-15T08:14:06.007Z,64.62
2023-01-15T08:16:36.091Z,64.39
2023-01-15T08:19:03.749Z,64.50
2023-01-15T08:21:30.799Z,64.47
2023-01-15T08:23:57.776Z,64.31
2023-01-15T08:26:24.803Z,64.28
2023-01-15T08:28:51.778Z,64.19
2023-01-15T08:31:18.722Z,64.09
2023-01-15T08:33:45.737Z,64.14
2023-01-15T08:36:12.688Z,64.00
2023-01-15T08:38:39.632Z,63.91
2023-01-15T08:41:06.650Z,63.66
2023-01-15T08:43:33.667Z,63.56
2023-01-15T08:46:01.638Z,63.42
2023-01-15T08:48:29.505Z,63.26
2023-01-15T08:50:56.555Z,63.25
2023-01-15T08:53:24.547Z,63.25
2023-01-15T08:55:51.570Z,63.12
2023-01-15T08:58:18.627Z,63.08
2023-01-15T09:00:45.669Z,63.07
2023-01-15T09:03:12.748Z,62.95
2023-01-15T09:05:39.703Z,63.05
2023-01-15T09:08:07.191Z,63.10
2023-01-15T09:10:34.880Z,62.99
2023-01-15T09:13:03.673Z,63.02
2023-01-15T09:15:31.513Z,62.88
2023-01-15T09:17:58.596Z,62.78
2023-01-15T09:20:25.658Z,62.73
2023-01-15T09:22:52.711Z,62.63
2023-01-15T09:25:20.366Z,62.51
2023-01-15T09:27:49.182Z,62.63
2023-01-15T09:30:20.860Z,62.52
2023-01-15T09:32:48.274Z,62.42
2023-01-15T09:35:15.605Z,62.31
2023-01-15T09:37:42.591Z,62.30
2023-01-15T09:40:24.327Z,62.28
2023-01-15T09:43:00.592Z,62.41
2023-01-15T09:45:47.507Z,62.12
2023-01-15T09:48:30.008Z,62.08
2023-01-15T09:51:02.899Z,61.95
2023-01-15T09:53:43.088Z,62.05
2023-01-15T09:56:25.699Z,61.77
2023-01-15T09:58:52.681Z,61.73
2023-01-15T10:01:30.098Z,61.55
2023-01-15T10:04:12.663Z,61.64
2023-01-15T10:06:44.064Z,61.53
2023-01-15T10:09:13.149Z,61.55
2023-01-15T10:12:08.158Z,61.39
2023-01-15T10:14:39.815Z,61.56
2023-01-15T10:17:18.545Z,61.45
2023-01-15T10:19:45.610Z,61.41
2023-01-15T10:22:19.903Z,61.35
2023-01-15T10:24:53.305Z,61.27
2023-01-15T10:27:22.316Z,61.22
2023-01-15T10:29:58.691Z,61.13
2023-01-15T10:33:00.970Z,61.06
2023-01-15T10:35:34.355Z,61.05
2023-01-15T10:38:07.639Z,60.99
2023-01-15T10:40:46.970Z,60.92
2023-01-15T10:43:51.396Z,60.96
2023-01-15T10:46:20.275Z,60.88
2023-01-15T10:48:57.422Z,60.95
2023-01-15T10:51:25.348Z,60.99
2023-01-15T10:54:12.874Z,61.05
2023-01-15T10:56:52.517Z,61.14
2023-01-15T10:59:31.856Z,61.04
2023-01-15T11:01:59.144Z,60.88
2023-01-15T11:04:28.360Z,60.87
2023-01-15T11:06:55.461Z,60.91
2023-01-15T11:09:24.586Z,60.92
2023-01-15T11:11:57.707Z,61.07
2023-01-15T11:15:01.047Z,61.11
2023-01-15T11:17:57.489Z,61.16
2023-01-15T11:20:32.153Z,61.26
2023-01-15T11:23:16.467Z,61.42
2023-01-15T11:25:54.269Z,61.34
2023-01-15T11:28:35.756Z,61.42
2023-01-15T11:31:03.192Z,61.49
2023-01-15T11:33:32.301Z,61.66
2023-01-15T11:36:01.417Z,61.50
2023-01-15T11:38:30.825Z,61.77
2023-01-15T11:41:00.568Z,61.64
2023-01-15T11:43:48.319Z,61.62
2023-01-15T11:46:47.857Z,61.57
2023-01-15T11:49:38.581Z,61.29
2023-01-15T11:52:16.697Z,61.26
2023-01-15T12:06:37.190Z,61.31
2023-01-15T12:09:16.783Z,60.82
2023-01-15T12:11:55.820Z,60.90
2023-01-15T12:14:53.515Z,60.86
2023-01-15T12:18:03.319Z,60.83
2023-01-15T12:21:04.395Z,60.93
2023-01-15T12:23:33.920Z,60.99
2023-01-15T12:26:26.955Z,61.28
2023-01-15T12:29:06.509Z,61.44
2023-01-15T12:31:47.204Z,61.59
2023-01-15T12:34:19.188Z,61.84
2023-01-15T12:36:52.102Z,62.09
2023-01-15T12:39:29.448Z,62.11
2023-01-15T12:42:20.803Z,62.16
2023-01-15T12:45:03.942Z,62.37
2023-01-15T12:48:10.773Z,62.48
2023-01-15T12:50:37.582Z,62.54
2023-01-15T12:53:10.854Z,62.75
2023-01-15T12:55:53.731Z,62.72
2023-01-15T12:58:26.370Z,62.78
2023-01-15T13:00:57.952Z,62.88
2023-01-15T13:03:29.677Z,62.86
2023-01-15T13:05:59.639Z,62.93
2023-01-15T13:08:37.114Z,63.08
2023-01-15T13:11:04.356Z,63.17
2023-01-15T13:13:34.214Z,63.18
2023-01-15T13:16:19.597Z,63.32
2023-01-15T13:19:07.996Z,63.41
2023-01-15T13:21:35.553Z,63.62
2023-01-15T13:24:18.095Z,63.65
2023-01-15T13:26:51.446Z,63.90
2023-01-15T13:29:24.176Z,63.94
2023-01-15T13:31:58.325Z,64.04
2023-01-15T13:34:34.725Z,64.09
2023-01-15T13:37:12.300Z,64.30
2023-01-15T13:39:41.341Z,64.49
2023-01-15T13:42:32.703Z,64.64
2023-01-15T13:45:27.373Z,64.81
2023-01-15T13:48:02.333Z,64.97
2023-01-15T13:50:31.408Z,65.10
2023-01-15T13:53:08.948Z,65.41
2023-01-15T13:55:37.940Z,65.36
2023-01-15T13:58:35.764Z,65.48
2023-01-15T14:01:21.983Z,65.58
2023-01-15T14:04:11.818Z,65.65
2023-01-15T14:06:46.949Z,65.93
2023-01-15T14:09:17.793Z,65.98
2023-01-15T14:12:03.894Z,66.01
2023-01-15T14:14:43.199Z,66.10
2023-01-15T14:17:34.738Z,66.25
2023-01-15T14:20:23.474Z,66.34
2023-01-15T14:23:03.547Z,66.45
2023-01-15T14:25:33.319Z,66.47
2023-01-15T14:28:06.625Z,66.54
2023-01-15T14:30:50.206Z,66.54
2023-01-15T14:33:24.429Z,66.64
2023-01-15T14:35:51.630Z,66.56
2023-01-15T14:38:20.107Z,66.73
2023-01-15T14:41:04.732Z,66.59
2023-01-15T14:43:33.477Z,66.47
2023-01-15T14:46:24.463Z,66.58
2023-01-15T14:48:51.248Z,66.59
2023-01-15T14:51:23.475Z,66.62
2023-01-15T14:53:57.930Z,66.52
2023-01-15T14:56:29.168Z,66.72
2023-01-15T14:59:00.970Z,66.73
2023-01-15T15:01:46.895Z,66.69
2023-01-15T15:04:19.949Z,66.68
2023-01-15T15:07:04.924Z,66.63
2023-01-15T15:09:57.990Z,66.67
2023-01-15T15:12:48.105Z,66.44
2023-01-15T15:15:19.320Z,66.40
2023-01-15T15:17:57.834Z,66.36
2023-01-15T15:20:33.634Z,66.45
2023-01-15T15:23:09.857Z,66.42
2023-01-15T15:25:39.505Z,66.44
2023-01-15T15:28:10.115Z,66.52
2023-01-15T15:30:41.279Z,66.41
2023-01-15T15:33:12.708Z,66.35
2023-01-15T15:35:40.012Z,66.31
2023-01-15T15:38:06.953Z,66.31
2023-01-15T15:40:35.097Z,66.13
2023-01-15T15:43:46.249Z,65.91
2023-01-15T15:46:47.766Z,65.58
2023-01-15T15:49:14.695Z,65.55
2023-01-15T15:51:45.553Z,65.34
2023-01-15T15:54:16.177Z,65.23
2023-01-15T15:57:02.406Z,65.40
2023-01-15T15:59:30.543Z,65.34
2023-01-15T16:01:59.132Z,65.28
2023-01-15T16:04:26.531Z,65.23
2023-01-15T16:06:53.447Z,65.30
2023-01-15T16:09:21.962Z,65.46
2023-01-15T16:11:50.302Z,65.36
2023-01-15T16:14:17.234Z,65.53
2023-01-15T16:16:44.137Z,65.54
2023-01-15T16:19:15.689Z,65.63
2023-01-15T16:21:43.926Z,65.61
2023-01-15T16:24:27.650Z,65.60
2023-01-15T16:26:59.043Z,65.58
2023-01-15T16:29:28.139Z,65.50
2023-01-15T16:31:56.408Z,65.47
2023-01-15T16:34:31.382Z,65.48
2023-01-15T16:36:58.880Z,65.46
2023-01-15T16:39:44.908Z,65.52
2023-01-15T16:42:24.635Z,65.70
2023-01-15T16:44:54.203Z,65.66
2023-01-15T16:47:41.200Z,65.52
2023-01-15T16:50:23.776Z,65.57
2023-01-15T16:52:55.280Z,65.34
2023-01-15T16:55:34.271Z,65.34
2023-01-15T16:58:14.187Z,65.24
2023-01-15T17:00:46.050Z,65.30
2023-01-15T17:03:20.838Z,65.42
2023-01-15T17:05:53.263Z,65.46
2023-01-15T17:08:47.021Z,65.47
2023-01-15T17:11:29.292Z,65.50
2023-01-15T17:14:20.598Z,65.52
2023-01-15T17:16:48.103Z,65.53
2023-01-15T17:19:15.679Z,65.63
2023-01-15T17:21:46.678Z,65.81
2023-01-15T17:24:13.527Z,65.76
2023-01-15T17:26:40.504Z,65.70
2023-01-15T17:29:08.910Z,65.59
2023-01-15T17:31:36.061Z,65.87
2023-01-15T17:34:03.481Z,65.81
2023-01-15T17:36:30.624Z,65.80
2023-01-15T17:38:57.493Z,65.80
2023-01-15T17:41:24.564Z,65.78
2023-01-15T17:43:52.324Z,65.85
2023-01-15T17:46:19.454Z,65.86
2023-01-15T18:06:53.325Z,68.15
2023-01-15T18:09:21.562Z,66.24
2023-01-15T18:11:50.237Z,66.13
2023-01-15T18:14:17.916Z,66.05
2023-01-15T18:16:44.969Z,66.10
2023-01-15T18:19:12.636Z,66.06
2023-01-15T18:21:40.240Z,66.13
2023-01-15T18:24:09.046Z,66.18
2023-01-15T18:26:37.912Z,66.02
2023-01-15T18:29:05.932Z,66.07
2023-01-15T18:31:33.625Z,66.15
2023-01-15T18:34:00.463Z,66.20
2023-01-15T18:36:30.367Z,66.05
2023-01-15T18:39:02.376Z,66.15
2023-01-15T18:41:36.612Z,66.05
2023-01-15T18:55:07.271Z,66.53
2023-01-15T18:57:34.423Z,65.94
2023-01-15T19:00:01.573Z,65.96
2023-01-15T19:02:29.363Z,66.05
2023-01-15T19:04:56.809Z,65.94
2023-01-15T19:07:23.823Z,66.05
2023-01-15T19:09:51.482Z,66.08
2023-01-15T19:12:19.974Z,66.03
2023-01-15T19:15:05.658Z,66.17
2023-01-15T19:17:51.301Z,66.05
2023-01-15T19:20:19.005Z,65.90
2023-01-15T19:23:05.179Z,65.91
2023-01-15T19:25:41.298Z,66.13
2023-01-15T19:28:10.348Z,66.13
2023-01-15T19:30:38.619Z,66.30
2023-01-15T19:33:06.601Z,66.34
2023-01-15T19:35:35.355Z,66.51
2023-01-15T19:38:03.044Z,66.49
2023-01-15T19:40:31.878Z,66.53
2023-01-15T19:43:17.892Z,66.66
2023-01-15T19:46:06.690Z,66.66
2023-01-15T19:48:52.690Z,66.50
